Time;durP1;ratioP1;P1;durP2;ratioP2;P2;SDS_P1;SDS_P2;PMS_P1;PMS_P2;Temp;Humidity;BMP_temperature;BMP_pressure;BME280_temperature;BME280_humidity;BME280_pressure;Samples;Min_cycle;Max_cycle;Signal;HPM_P1;HPM_P2
2023/12/27 00:01:22;;;;;;;7.50;1.30;;;3.00;99.90;;;;;;5078966;28;20230;-82
2023/12/27 00:03:48;;;;;;;8.50;1.40;;;2.90;99.90;;;;;;5079015;28;20205;-79
2023/12/27 00:06:15;;;;;;;4.97;1.40;;;2.90;1.00;;;;;;5079713;28;20216;-80
2023/12/27 00:08:42;;;;;;;11.00;2.77;;;2.90;1.00;;;;;;5079993;28;20222;-81
2023/12/27 00:11:10;;;;;;;6.90;1.30;;;2.90;1.00;;;;;;5079637;28;20245;-79
2023/12/27 00:13:37;;;;;;;7.03;1.37;;;3.10;99.90;;;;;;5079921;28;20237;-80
2023/12/27 00:16:05;;;;;;;5.73;1.50;;;3.30;99.90;;;;;;5078821;28;20206;-80
2023/12/27 00:18:32;;;;;;;8.53;1.87;;;3.60;1.00;;;;;;5078555;28;20218;-80
2023/12/27 00:20:58;;;;;;;9.03;2.53;;;3.90;99.90;;;;;;5076808;28;20293;-82
2023/12/27 00:23:27;;;;;;;10.23;1.90;;;3.90;1.00;;;;;;5061107;28;20219;-80
2023/12/27 00:25:54;;;;;;;10.13;2.13;;;4.00;99.90;;;;;;5061659;28;20199;-81
2023/12/27 00:28:22;;;;;;;7.13;2.23;;;4.10;1.00;;;;;;5060946;28;20207;-81
2023/12/27 00:30:51;;;;;;;9.00;1.80;;;4.30;1.00;;;;;;5072997;28;20199;-81
2023/12/27 00:33:18;;;;;;;10.27;1.90;;;4.10;1.00;;;;;;5080123;28;20234;-80
2023/12/27 00:35:44;;;;;;;5.83;1.23;;;4.10;1.00;;;;;;5080271;28;20578;-80
2023/12/27 00:38:11;;;;;;;5.13;1.27;;;4.10;1.00;;;;;;5081205;28;20293;-81
2023/12/27 00:40:38;;;;;;;10.83;1.60;;;4.00;1.00;;;;;;5080951;28;20194;-80
2023/12/27 00:43:05;;;;;;;6.60;1.47;;;4.00;1.00;;;;;;5080732;28;20639;-81
2023/12/27 00:45:33;;;;;;;8.87;1.77;;;4.00;1.00;;;;;;5080703;28;20206;-80
2023/12/27 00:48:00;;;;;;;4.13;2.20;;;4.10;1.00;;;;;;5077851;28;20634;-80
2023/12/27 00:50:27;;;;;;;9.23;1.47;;;4.10;1.00;;;;;;5075567;28;20237;-80
2023/12/27 00:52:54;;;;;;;8.50;1.90;;;4.00;1.00;;;;;;5080783;28;20222;-81
2023/12/27 00:55:21;;;;;;;5.70;1.50;;;3.80;1.00;;;;;;5081234;28;20229;-79
2023/12/27 00:57:47;;;;;;;7.57;1.27;;;3.50;1.00;;;;;;5081936;28;20186;-80
2023/12/27 01:00:15;;;;;;;18.83;2.40;;;3.30;1.00;;;;;;5081010;28;20198;-79
2023/12/27 01:02:43;;;;;;;17.50;1.73;;;3.10;1.00;;;;;;5081870;28;20250;-79
2023/12/27 01:05:10;;;;;;;6.73;1.50;;;3.00;1.00;;;;;;5079964;28;20224;-81
2023/12/27 01:07:37;;;;;;;8.00;2.53;;;3.00;99.90;;;;;;5079624;28;20220;-81
2023/12/27 01:10:05;;;;;;;8.73;2.20;;;2.80;1.00;;;;;;5079585;28;20218;-82
2023/12/27 01:12:31;;;;;;;6.37;2.07;;;2.80;1.00;;;;;;5079069;28;20223;-82
2023/12/27 01:14:58;;;;;;;8.13;2.20;;;2.70;99.90;;;;;;5072383;28;20235;-84
2023/12/27 01:17:25;;;;;;;10.20;2.00;;;2.60;99.90;;;;;;5077486;28;20210;-81
2023/12/27 01:19:53;;;;;;;10.50;1.67;;;2.50;99.90;;;;;;5077708;28;20209;-83
2023/12/27 01:22:20;;;;;;;6.33;1.73;;;2.40;1.00;;;;;;5073357;28;20215;-81
2023/12/27 01:24:47;;;;;;;9.10;1.73;;;2.40;1.00;;;;;;5069148;28;20207;-82
2023/12/27 01:27:14;;;;;;;8.47;2.47;;;2.50;1.00;;;;;;5067611;28;20213;-82
2023/12/27 01:29:41;;;;;;;10.83;2.17;;;2.60;73.90;;;;;;5062010;28;20238;-82
2023/12/27 01:32:08;;;;;;;7.83;1.90;;;2.50;1.00;;;;;;5069456;28;20645;-83
2023/12/27 01:34:38;;;;;;;9.07;2.70;;;2.50;1.00;;;;;;5072487;28;20202;-84
2023/12/27 01:37:06;;;;;;;8.17;2.10;;;2.90;45.00;;;;;;5072299;28;20202;-81
2023/12/27 01:39:33;;;;;;;10.07;2.10;;;2.40;68.70;;;;;;5068320;28;20660;-82
2023/12/27 01:42:00;;;;;;;8.63;2.20;;;2.50;99.90;;;;;;5064945;28;20310;-81
2023/12/27 01:44:26;;;;;;;7.93;1.70;;;2.80;99.90;;;;;;5066080;28;20206;-81
2023/12/27 01:46:53;;;;;;;6.97;2.43;;;2.80;99.90;;;;;;5073593;28;20217;-83
2023/12/27 01:49:20;;;;;;;6.83;1.83;;;2.80;5.20;;;;;;5071402;28;20309;-82
2023/12/27 01:51:47;;;;;;;9.97;2.20;;;2.70;1.00;;;;;;5066832;28;20235;-82
2023/12/27 01:54:15;;;;;;;9.60;1.83;;;2.60;1.00;;;;;;5071603;28;20199;-83
2023/12/27 01:56:45;;;;;;;9.23;2.23;;;2.50;1.00;;;;;;5068270;28;20207;-83
2023/12/27 01:59:12;;;;;;;5.10;2.10;;;2.60;99.90;;;;;;5068056;28;20632;-82
2023/12/27 02:01:39;;;;;;;8.80;2.10;;;2.70;99.90;;;;;;5072841;28;20677;-83
2023/12/27 02:04:06;;;;;;;6.97;2.43;;;2.70;24.00;;;;;;5074587;28;20289;-83
2023/12/27 02:06:34;;;;;;;8.37;1.77;;;2.50;1.00;;;;;;5071200;28;20212;-82
2023/12/27 02:09:01;;;;;;;5.90;1.93;;;2.40;1.00;;;;;;5072840;28;20554;-82
2023/12/27 02:11:29;;;;;;;4.83;1.90;;;2.20;1.20;;;;;;5074650;28;20232;-81
2023/12/27 02:13:56;;;;;;;5.97;1.50;;;2.30;99.90;;;;;;5073574;28;20672;-83
2023/12/27 02:16:23;;;;;;;5.80;2.17;;;2.20;99.90;;;;;;5076649;28;20657;-82
2023/12/27 02:18:50;;;;;;;20.80;2.47;;;2.10;99.90;;;;;;5069289;28;20199;-82
2023/12/27 02:21:18;;;;;;;10.93;2.10;;;2.00;99.90;;;;;;5074038;28;20195;-82
2023/12/27 02:23:49;;;;;;;6.57;1.47;;;2.00;99.90;;;;;;5065328;28;20203;-83
2023/12/27 02:26:17;;;;;;;8.57;2.10;;;2.00;99.90;;;;;;5071432;28;20222;-82
2023/12/27 02:28:44;;;;;;;7.50;1.93;;;1.80;99.90;;;;;;5064235;28;20213;-82
2023/12/27 02:31:11;;;;;;;4.67;1.47;;;1.80;99.90;;;;;;5065206;28;20218;-83
2023/12/27 02:33:40;;;;;;;9.90;2.23;;;1.60;99.90;;;;;;5067523;28;20210;-82
2023/12/27 02:36:07;;;;;;;11.27;2.17;;;1.80;99.90;;;;;;5063777;28;20296;-81
2023/12/27 02:38:34;;;;;;;8.57;2.13;;;1.90;99.90;;;;;;5063158;28;20221;-82
2023/12/27 02:41:02;;;;;;;7.27;2.50;;;1.80;99.90;;;;;;5063777;28;20209;-84
2023/12/27 02:43:30;;;;;;;12.20;1.80;;;1.70;99.90;;;;;;5068797;28;20214;-81
2023/12/27 02:45:57;;;;;;;9.10;2.30;;;1.70;99.90;;;;;;5063383;28;20202;-83
2023/12/27 02:48:24;;;;;;;9.07;2.67;;;1.60;99.90;;;;;;5057546;28;20691;-83
2023/12/27 02:50:50;;;;;;;7.30;1.83;;;1.70;99.90;;;;;;5060956;28;20218;-81
2023/12/27 02:53:17;;;;;;;10.30;2.00;;;1.60;99.90;;;;;;5069663;28;20230;-84
2023/12/27 02:55:44;;;;;;;15.13;2.03;;;1.80;99.90;;;;;;5062896;28;20562;-82
2023/12/27 02:58:11;;;;;;;4.47;1.70;;;1.70;99.90;;;;;;5065198;28;20293;-82
2023/12/27 03:00:39;;;;;;;8.73;1.60;;;1.70;99.90;;;;;;5063982;28;20202;-84
2023/12/27 03:03:06;;;;;;;7.37;1.60;;;1.70;99.90;;;;;;5068091;28;20696;-82
2023/12/27 03:05:33;;;;;;;8.57;2.00;;;1.70;99.90;;;;;;5073461;28;20653;-82
2023/12/27 03:07:59;;;;;;;9.53;1.90;;;1.70;99.90;;;;;;5071281;28;20203;-83
2023/12/27 03:10:26;;;;;;;4.30;1.70;;;1.80;99.90;;;;;;5066823;28;20706;-82
2023/12/27 03:12:53;;;;;;;4.30;1.33;;;1.70;99.90;;;;;;5069716;28;20222;-84
2023/12/27 03:15:20;;;;;;;9.30;2.10;;;1.60;99.90;;;;;;5072422;28;20289;-83
2023/12/27 03:17:48;;;;;;;9.57;2.10;;;1.70;99.90;;;;;;5071567;28;20641;-80
2023/12/27 03:20:15;;;;;;;9.23;1.90;;;1.60;99.90;;;;;;5065210;28;20206;-84
2023/12/27 03:22:42;;;;;;;6.07;1.73;;;1.80;99.90;;;;;;5071914;28;20230;-83
2023/12/27 03:25:09;;;;;;;3.80;1.07;;;1.60;99.90;;;;;;5072141;28;20673;-84
2023/12/27 03:27:36;;;;;;;8.37;2.30;;;1.30;99.90;;;;;;5066116;28;20227;-84
2023/12/27 03:30:03;;;;;;;6.60;1.57;;;1.30;99.90;;;;;;5056368;28;20586;-83
2023/12/27 03:32:30;;;;;;;7.23;1.90;;;1.40;99.90;;;;;;5063102;28;20234;-84
2023/12/27 03:34:58;;;;;;;6.67;2.10;;;1.50;99.90;;;;;;5068913;28;20274;-84
2023/12/27 03:37:25;;;;;;;6.60;1.60;;;1.80;99.90;;;;;;5066239;28;20273;-84
2023/12/27 03:39:51;;;;;;;8.17;1.87;;;1.60;99.90;;;;;;5062923;28;20646;-82
2023/12/27 03:42:20;;;;;;;6.90;2.00;;;1.40;99.90;;;;;;5066678;28;20237;-81
2023/12/27 03:44:52;;;;;;;7.37;1.80;;;1.50;99.90;;;;;;5070057;28;20229;-80
2023/12/27 03:47:19;;;;;;;8.07;1.60;;;1.70;99.90;;;;;;5068452;28;20213;-80
2023/12/27 03:49:45;;;;;;;6.87;2.40;;;1.40;99.90;;;;;;5065668;28;20232;-82
2023/12/27 03:52:14;;;;;;;10.17;1.83;;;1.60;99.90;;;;;;5068635;28;20214;-83
2023/12/27 03:54:41;;;;;;;8.30;1.80;;;1.40;99.90;;;;;;5067231;28;20235;-82
2023/12/27 03:57:08;;;;;;;6.50;1.23;;;1.60;99.90;;;;;;5076023;28;20293;-82
2023/12/27 03:59:37;;;;;;;2.80;1.37;;;1.50;99.90;;;;;;5075728;28;20724;-82
2023/12/27 04:02:04;;;;;;;7.23;1.30;;;1.40;99.90;;;;;;5072119;28;20222;-79
2023/12/27 04:04:31;;;;;;;6.07;1.73;;;1.40;99.90;;;;;;5075335;28;20198;-79
2023/12/27 04:06:58;;;;;;;6.73;1.53;;;1.50;99.90;;;;;;5067324;28;20201;-82
2023/12/27 04:09:26;;;;;;;4.17;1.50;;;1.40;99.90;;;;;;5075639;28;20244;-83
2023/12/27 04:11:53;;;;;;;4.47;1.10;;;1.40;99.90;;;;;;5076745;28;20309;-83
2023/12/27 04:14:19;;;;;;;9.17;1.80;;;1.40;99.90;;;;;;5072653;28;20210;-83
2023/12/27 04:16:46;;;;;;;5.23;1.50;;;1.40;99.90;;;;;;5073068;28;20286;-82
2023/12/27 04:19:13;;;;;;;10.00;2.30;;;1.30;99.90;;;;;;5064900;28;20203;-83
2023/12/27 04:21:41;;;;;;;5.63;2.03;;;1.40;99.90;;;;;;5073980;28;20780;-83
2023/12/27 04:24:09;;;;;;;8.70;3.33;;;1.60;99.90;;;;;;5077294;28;20210;-80
2023/12/27 04:26:39;;;;;;;17.40;6.83;;;1.70;99.90;;;;;;5077055;28;20206;-83
2023/12/27 04:29:07;;;;;;;11.23;3.40;;;1.50;99.90;;;;;;5077467;28;20233;-82
2023/12/27 04:31:34;;;;;;;7.57;2.73;;;1.50;99.90;;;;;;5072074;28;20287;-81
2023/12/27 04:34:01;;;;;;;6.27;2.20;;;1.70;99.90;;;;;;5076106;28;20224;-81
2023/12/27 04:36:28;;;;;;;10.43;3.07;;;1.60;99.90;;;;;;5062815;28;20288;-81
2023/12/27 04:38:55;;;;;;;13.10;5.03;;;1.60;99.90;;;;;;5062914;28;20688;-81
2023/12/27 04:41:21;;;;;;;13.93;5.30;;;1.60;99.90;;;;;;5064275;28;20234;-82
2023/12/27 04:43:50;;;;;;;13.23;5.33;;;1.60;99.90;;;;;;5065224;28;20247;-81
2023/12/27 04:46:17;;;;;;;15.93;6.00;;;1.70;99.90;;;;;;5064669;28;20393;-82
2023/12/27 04:48:44;;;;;;;14.97;6.47;;;1.70;99.90;;;;;;5063425;28;20203;-79
2023/12/27 04:51:10;;;;;;;14.63;5.70;;;1.60;99.90;;;;;;5072741;28;20636;-83
2023/12/27 04:53:37;;;;;;;16.73;6.97;;;1.60;99.90;;;;;;5062846;28;20198;-81
2023/12/27 04:56:05;;;;;;;20.63;8.17;;;1.70;99.90;;;;;;5068350;28;20597;-81
2023/12/27 04:58:35;;;;;;;17.87;5.90;;;1.70;99.90;;;;;;5063578;28;20224;-80
2023/12/27 05:01:04;;;;;;;12.60;4.10;;;1.80;99.90;;;;;;5063975;28;20195;-82
2023/12/27 05:03:30;;;;;;;16.10;5.17;;;1.80;99.90;;;;;;5067813;28;20265;-81
2023/12/27 05:05:57;;;;;;;20.40;8.73;;;1.70;99.90;;;;;;5065909;28;20207;-83
2023/12/27 05:08:24;;;;;;;7.47;3.00;;;1.80;99.90;;;;;;5069455;28;20205;-79
2023/12/27 05:10:51;;;;;;;5.70;2.10;;;1.70;99.90;;;;;;5068780;28;20233;-83
2023/12/27 05:13:18;;;;;;;4.33;2.03;;;1.80;99.90;;;;;;5071349;28;20659;-81
2023/12/27 05:15:46;;;;;;;11.30;2.50;;;1.80;99.90;;;;;;5072113;28;20265;-82
2023/12/27 05:18:15;;;;;;;8.30;2.43;;;1.90;99.90;;;;;;5061648;28;20207;-84
2023/12/27 05:20:42;;;;;;;9.80;3.20;;;1.90;99.90;;;;;;5073726;28;20217;-82
2023/12/27 05:23:08;;;;;;;8.93;2.60;;;1.90;99.90;;;;;;5073931;28;20237;-80
2023/12/27 05:25:36;;;;;;;10.33;3.10;;;2.00;99.90;;;;;;5075577;28;20229;-83
2023/12/27 05:28:03;;;;;;;6.37;2.57;;;1.90;99.90;;;;;;5068567;28;20277;-81
2023/12/27 05:30:32;;;;;;;4.97;1.77;;;2.00;99.90;;;;;;5073584;28;20218;-81
2023/12/27 05:32:59;;;;;;;6.00;2.33;;;1.90;99.90;;;;;;5072783;28;20274;-81
2023/12/27 05:35:28;;;;;;;7.23;1.93;;;1.90;99.90;;;;;;5074309;28;20516;-83
2023/12/27 05:37:55;;;;;;;8.03;1.87;;;1.90;99.90;;;;;;5067159;28;20211;-83
2023/12/27 05:40:21;;;;;;;4.57;1.73;;;1.90;99.90;;;;;;5064997;28;20201;-82
2023/12/27 05:42:48;;;;;;;7.63;1.70;;;1.90;99.90;;;;;;5057669;28;20219;-82
2023/12/27 05:45:16;;;;;;;11.07;1.50;;;1.90;99.90;;;;;;5060400;28;20649;-80
2023/12/27 05:47:42;;;;;;;13.50;1.93;;;1.90;99.90;;;;;;5056183;28;20211;-82
2023/12/27 05:50:10;;;;;;;5.07;1.30;;;2.00;99.90;;;;;;5059851;28;20276;-81
2023/12/27 05:52:39;;;;;;;6.23;1.47;;;2.00;99.90;;;;;;5060255;28;20305;-83
2023/12/27 05:55:07;;;;;;;8.60;1.70;;;2.10;99.90;;;;;;5067639;28;20198;-81
2023/12/27 05:57:34;;;;;;;9.80;2.77;;;2.10;99.90;;;;;;5067566;28;20202;-82
2023/12/27 06:00:01;;;;;;;5.03;1.40;;;2.10;99.90;;;;;;5066097;28;20714;-83
2023/12/27 06:02:28;;;;;;;6.10;1.37;;;2.00;99.90;;;;;;5062323;28;20610;-81
2023/12/27 06:04:55;;;;;;;7.67;1.70;;;1.90;99.90;;;;;;5067733;28;20237;-83
2023/12/27 06:07:22;;;;;;;7.33;1.93;;;1.90;99.90;;;;;;5072281;28;20205;-81
2023/12/27 06:09:51;;;;;;;6.67;2.63;;;1.90;99.90;;;;;;5072179;28;20198;-81
2023/12/27 06:12:19;;;;;;;4.67;2.20;;;1.80;99.90;;;;;;5073364;28;20219;-81
2023/12/27 06:14:46;;;;;;;4.87;1.20;;;1.90;99.90;;;;;;5076634;28;20202;-82
2023/12/27 06:17:13;;;;;;;3.23;1.63;;;2.00;99.90;;;;;;5072463;28;20210;-79
2023/12/27 06:19:40;;;;;;;8.57;1.57;;;2.00;99.90;;;;;;5069606;28;20214;-81
2023/12/27 06:22:07;;;;;;;4.67;1.80;;;2.00;99.90;;;;;;5072166;28;20242;-81
2023/12/27 06:24:34;;;;;;;2.97;1.90;;;2.00;99.90;;;;;;5076487;28;20213;-83
2023/12/27 06:27:02;;;;;;;6.13;1.47;;;2.00;99.90;;;;;;5068995;28;20239;-81
2023/12/27 06:29:29;;;;;;;6.10;1.23;;;1.90;99.90;;;;;;5072335;28;20206;-81
2023/12/27 06:31:55;;;;;;;6.10;2.30;;;1.80;99.90;;;;;;5073194;28;20763;-83
2023/12/27 06:34:22;;;;;;;7.80;1.87;;;1.70;99.90;;;;;;5060228;28;20206;-82
2023/12/27 06:36:51;;;;;;;5.27;1.60;;;1.70;99.90;;;;;;5060139;28;20657;-81
2023/12/27 06:39:17;;;;;;;7.60;1.40;;;1.70;99.90;;;;;;5065284;28;20201;-83
2023/12/27 06:41:44;;;;;;;4.87;1.50;;;1.60;99.90;;;;;;5067872;28;20597;-83
2023/12/27 06:44:12;;;;;;;6.50;1.53;;;1.60;99.90;;;;;;5066298;28;20207;-81
2023/12/27 06:46:39;;;;;;;6.37;1.60;;;1.70;99.90;;;;;;5061736;28;20210;-81
2023/12/27 06:49:06;;;;;;;6.70;1.90;;;2.00;99.90;;;;;;5066966;28;20290;-83
2023/12/27 06:51:33;;;;;;;5.37;1.70;;;1.90;99.90;;;;;;5063543;28;20233;-81
2023/12/27 06:54:01;;;;;;;5.67;1.93;;;1.90;99.90;;;;;;5069306;28;20211;-82
2023/12/27 06:56:27;;;;;;;3.13;1.40;;;1.80;99.90;;;;;;5063596;28;20220;-82
2023/12/27 06:58:54;;;;;;;5.73;1.77;;;1.80;99.90;;;;;;5061619;28;20225;-80
2023/12/27 07:01:24;;;;;;;5.83;1.53;;;1.90;99.90;;;;;;5066075;28;20349;-79
2023/12/27 07:03:51;;;;;;;6.90;1.90;;;1.90;99.90;;;;;;5063357;28;20214;-81
2023/12/27 07:06:18;;;;;;;9.37;1.90;;;1.80;99.90;;;;;;5061386;28;20209;-81
2023/12/27 07:08:46;;;;;;;5.47;1.50;;;1.80;99.90;;;;;;5061407;28;20207;-81
2023/12/27 07:11:18;;;;;;;8.40;1.77;;;1.70;99.90;;;;;;5063911;28;20557;-82
2023/12/27 07:13:46;;;;;;;5.27;1.90;;;1.70;99.90;;;;;;5065553;28;20198;-81
2023/12/27 07:16:12;;;;;;;5.47;1.57;;;1.60;99.90;;;;;;5063463;28;20589;-80
2023/12/27 07:18:41;;;;;;;6.80;1.87;;;1.70;99.90;;;;;;5065636;28;20578;-80
2023/12/27 07:21:09;;;;;;;6.37;2.07;;;1.70;99.90;;;;;;5064863;28;20289;-81
2023/12/27 07:23:36;;;;;;;12.10;2.47;;;1.70;99.90;;;;;;5068769;28;20868;-80
2023/12/27 07:26:04;;;;;;;6.73;2.00;;;1.80;99.90;;;;;;5068163;28;20692;-80
2023/12/27 07:28:31;;;;;;;10.33;2.37;;;1.80;99.90;;;;;;5069214;28;20372;-82
2023/12/27 07:30:58;;;;;;;6.97;2.47;;;1.80;99.90;;;;;;5070689;28;20222;-80
2023/12/27 07:33:25;;;;;;;8.23;2.30;;;1.80;99.90;;;;;;5068734;28;20284;-80
2023/12/27 07:35:53;;;;;;;7.33;1.83;;;1.70;99.90;;;;;;5065968;28;20238;-80
2023/12/27 07:38:20;;;;;;;9.70;2.07;;;1.60;99.90;;;;;;5062506;28;20520;-81
2023/12/27 07:40:47;;;;;;;3.87;2.00;;;1.60;99.90;;;;;;5071001;28;20206;-80
2023/12/27 07:43:14;;;;;;;4.53;1.50;;;1.60;99.90;;;;;;5068095;28;20222;-80
2023/12/27 07:45:42;;;;;;;8.57;2.00;;;1.60;99.90;;;;;;5066937;28;20665;-79
2023/12/27 07:48:09;;;;;;;10.87;4.13;;;1.70;99.90;;;;;;5056638;28;20206;-80
2023/12/27 07:50:36;;;;;;;9.93;3.30;;;1.70;99.90;;;;;;5055977;28;20655;-80
2023/12/27 07:53:05;;;;;;;6.23;2.80;;;1.60;99.90;;;;;;5063654;28;20566;-82
2023/12/27 07:55:32;;;;;;;5.67;2.30;;;1.60;99.90;;;;;;5056325;28;20211;-80
2023/12/27 07:57:59;;;;;;;6.40;2.47;;;1.60;99.90;;;;;;5067879;28;20582;-79
2023/12/27 08:00:26;;;;;;;7.57;2.40;;;1.60;99.90;;;;;;5068227;28;20202;-80
2023/12/27 08:02:55;;;;;;;5.87;2.13;;;1.70;99.90;;;;;;5063158;28;20211;-80
2023/12/27 08:05:22;;;;;;;7.87;2.53;;;1.80;99.90;;;;;;5064195;28;20726;-79
2023/12/27 08:07:48;;;;;;;8.20;2.57;;;1.80;99.90;;;;;;5063547;28;20285;-79
2023/12/27 08:10:17;;;;;;;7.43;2.37;;;2.00;99.90;;;;;;5064070;28;20614;-78
2023/12/27 08:12:45;;;;;;;6.50;2.00;;;2.30;99.90;;;;;;5061818;28;20222;-79
2023/12/27 08:15:12;;;;;;;8.93;1.90;;;2.30;99.90;;;;;;5068871;28;20548;-79
2023/12/27 08:17:39;;;;;;;9.53;2.33;;;2.50;99.90;;;;;;5066925;28;20207;-80
2023/12/27 08:20:07;;;;;;;6.27;2.07;;;2.50;99.90;;;;;;5065896;28;20226;-79
2023/12/27 08:22:33;;;;;;;7.10;2.13;;;2.50;99.90;;;;;;5067676;28;20222;-79
2023/12/27 08:25:00;;;;;;;8.30;1.80;;;2.50;99.90;;;;;;5071285;28;20209;-80
2023/12/27 08:27:28;;;;;;;11.97;2.70;;;2.60;99.90;;;;;;5070758;28;20294;-79
2023/12/27 08:29:55;;;;;;;4.33;1.37;;;2.70;99.90;;;;;;5073312;28;20204;-78
2023/12/27 08:32:22;;;;;;;8.73;1.70;;;2.80;99.90;;;;;;5063352;28;20230;-78
2023/12/27 08:34:50;;;;;;;5.53;1.97;;;2.90;99.90;;;;;;5063278;28;20209;-80
2023/12/27 08:37:16;;;;;;;7.27;2.00;;;3.00;99.90;;;;;;5063721;28;20198;-80
2023/12/27 08:39:44;;;;;;;6.27;2.03;;;3.10;99.90;;;;;;5067533;28;20208;-78
2023/12/27 08:42:10;;;;;;;5.33;2.07;;;3.10;99.90;;;;;;5072951;28;20218;-78
2023/12/27 08:44:39;;;;;;;9.83;1.90;;;3.20;99.90;;;;;;5072091;28;20199;-79
2023/12/27 08:47:05;;;;;;;8.47;1.60;;;3.20;99.90;;;;;;5071750;28;20736;-78
2023/12/27 08:49:32;;;;;;;10.77;2.27;;;3.30;99.90;;;;;;5069120;28;20206;-79
2023/12/27 08:51:59;;;;;;;8.13;2.00;;;3.40;99.90;;;;;;5070939;28;20226;-79
2023/12/27 08:54:26;;;;;;;5.53;2.13;;;3.50;99.90;;;;;;5070926;28;20286;-79
2023/12/27 08:56:53;;;;;;;6.47;2.50;;;3.60;99.90;;;;;;5068391;28;20211;-79
2023/12/27 08:59:19;;;;;;;6.80;2.07;;;3.60;99.90;;;;;;5073732;28;20193;-79
2023/12/27 09:01:48;;;;;;;5.40;2.10;;;3.60;99.90;;;;;;5071313;28;20304;-80
2023/12/27 09:04:17;;;;;;;6.97;2.57;;;3.70;99.90;;;;;;5070305;28;20633;-78
2023/12/27 09:06:44;;;;;;;14.13;3.63;;;3.80;99.90;;;;;;5065557;28;20237;-79
2023/12/27 09:09:12;;;;;;;5.37;2.37;;;3.70;99.90;;;;;;5068626;28;20237;-79
2023/12/27 09:11:39;;;;;;;8.70;2.50;;;3.80;99.90;;;;;;5066732;28;20237;-79
2023/12/27 09:14:05;;;;;;;5.73;2.23;;;3.70;99.90;;;;;;5070790;28;20205;-79
2023/12/27 09:16:32;;;;;;;8.70;2.00;;;3.80;99.90;;;;;;5072103;28;20253;-80
2023/12/27 09:19:02;;;;;;;6.00;2.50;;;4.20;99.90;;;;;;5073001;28;20199;-80
2023/12/27 09:21:29;;;;;;;7.70;1.90;;;4.00;99.90;;;;;;5066191;28;20219;-82
2023/12/27 09:23:55;;;;;;;5.07;1.80;;;4.10;99.90;;;;;;5065992;28;20258;-81
2023/12/27 09:26:22;;;;;;;6.17;1.70;;;4.10;99.90;;;;;;5065805;28;20229;-81
2023/12/27 09:28:49;;;;;;;7.93;2.23;;;4.20;99.90;;;;;;5065175;28;20203;-82
2023/12/27 09:31:16;;;;;;;6.17;2.10;;;4.20;99.90;;;;;;5062608;28;20267;-81
2023/12/27 09:33:45;;;;;;;7.90;2.57;;;4.10;99.90;;;;;;5062901;28;20233;-82
2023/12/27 09:36:13;;;;;;;9.70;2.63;;;4.20;99.90;;;;;;5062864;28;20237;-81
2023/12/27 09:38:40;;;;;;;6.73;2.40;;;4.20;99.90;;;;;;5062882;28;20211;-80
2023/12/27 09:41:07;;;;;;;5.87;2.23;;;4.30;99.90;;;;;;5062831;28;20223;-81
2023/12/27 09:43:36;;;;;;;8.27;2.80;;;4.40;99.90;;;;;;5061925;28;20267;-80
2023/12/27 09:46:04;;;;;;;6.33;3.03;;;4.70;99.90;;;;;;5062260;28;20210;-82
2023/12/27 09:48:32;;;;;;;6.73;1.90;;;4.50;99.90;;;;;;5063154;28;20205;-81
2023/12/27 09:51:00;;;;;;;5.73;1.87;;;4.50;99.90;;;;;;5062983;28;20207;-81
2023/12/27 09:53:28;;;;;;;6.07;2.57;;;4.40;99.90;;;;;;5061252;28;20231;-80
2023/12/27 09:55:56;;;;;;;5.07;2.67;;;4.60;99.90;;;;;;5063145;28;20716;-81
2023/12/27 09:58:27;;;;;;;6.60;2.67;;;4.70;99.90;;;;;;5081266;28;20289;-80
2023/12/27 10:00:58;;;;;;;5.93;2.20;;;4.80;99.90;;;;;;5082500;28;20274;-78
2023/12/27 10:03:34;;;;;;;4.83;1.93;;;4.80;99.90;;;;;;5081827;28;20290;-81
2023/12/27 10:06:11;;;;;;;9.00;2.10;;;4.80;99.90;;;;;;5082040;28;20250;-81
2023/12/27 10:08:40;;;;;;;10.53;2.70;;;4.80;99.90;;;;;;5082618;28;20212;-80
2023/12/27 10:11:08;;;;;;;3.97;1.97;;;4.90;99.90;;;;;;5083800;28;20225;-80
2023/12/27 10:13:41;;;;;;;9.03;2.30;;;4.90;1.00;;;;;;5081602;28;20692;-81
2023/12/27 10:16:08;;;;;;;5.47;2.03;;;5.10;1.00;;;;;;5082742;28;20277;-81
2023/12/27 10:18:35;;;;;;;4.67;1.90;;;5.10;1.00;;;;;;5077809;28;20304;-79
2023/12/27 10:21:02;;;;;;;4.83;2.33;;;5.00;1.00;;;;;;5065638;28;20680;-78
2023/12/27 10:23:29;;;;;;;9.63;3.00;;;5.10;1.00;;;;;;5081037;28;20194;-80
2023/12/27 10:25:58;;;;;;;5.80;2.07;;;5.20;99.90;;;;;;5080749;28;20198;-80
2023/12/27 10:28:25;;;;;;;7.13;2.00;;;5.20;99.90;;;;;;5081158;28;20206;-81
2023/12/27 10:30:53;;;;;;;5.40;2.40;;;5.20;99.90;;;;;;5081331;28;20210;-80
2023/12/27 10:33:20;;;;;;;8.50;2.00;;;5.30;99.90;;;;;;5081517;28;20313;-79
2023/12/27 10:35:48;;;;;;;7.77;2.33;;;5.20;1.00;;;;;;5081679;28;20657;-81
2023/12/27 10:38:15;;;;;;;5.83;2.03;;;5.30;1.00;;;;;;5079361;28;20728;-79
2023/12/27 10:40:42;;;;;;;7.10;2.37;;;5.30;1.00;;;;;;5080759;28;20285;-79
2023/12/27 10:43:10;;;;;;;6.13;2.30;;;5.40;1.00;;;;;;5079390;28;20229;-81
2023/12/27 10:45:38;;;;;;;9.07;2.53;;;5.40;1.00;;;;;;5078731;28;20206;-79
2023/12/27 10:48:06;;;;;;;4.73;2.50;;;5.50;1.00;;;;;;5079016;28;20212;-78
2023/12/27 10:50:34;;;;;;;8.37;2.53;;;5.50;1.00;;;;;;5078481;28;20645;-79
2023/12/27 10:53:03;;;;;;;12.27;2.90;;;5.60;1.00;;;;;;5078197;28;20226;-80
2023/12/27 10:55:31;;;;;;;6.60;2.70;;;5.70;1.00;;;;;;5078449;28;20206;-78
2023/12/27 10:58:01;;;;;;;5.60;1.77;;;5.70;1.00;;;;;;5058482;28;20298;-79
2023/12/27 11:00:29;;;;;;;9.43;2.47;;;5.70;1.00;;;;;;5054849;28;20297;-80
2023/12/27 11:02:58;;;;;;;6.33;2.37;;;5.80;1.00;;;;;;5056445;28;20222;-79
2023/12/27 11:05:27;;;;;;;12.43;2.57;;;5.80;1.00;;;;;;5075054;28;20206;-78
2023/12/27 11:07:55;;;;;;;7.00;2.53;;;5.90;10.80;;;;;;5075181;28;20213;-78
2023/12/27 11:10:23;;;;;;;9.57;3.80;;;6.00;1.00;;;;;;5074294;28;20202;-78
2023/12/27 11:12:51;;;;;;;10.13;2.80;;;6.10;1.00;;;;;;5073956;28;20248;-78
2023/12/27 11:15:19;;;;;;;7.00;1.97;;;6.10;1.00;;;;;;5062243;28;20609;-77
2023/12/27 11:17:49;;;;;;;7.67;2.47;;;6.10;1.00;;;;;;5073364;28;20210;-78
2023/12/27 11:20:19;;;;;;;11.10;2.50;;;6.10;1.00;;;;;;5078578;28;20201;-79
2023/12/27 11:22:47;;;;;;;9.77;2.70;;;6.10;99.90;;;;;;5077521;28;20228;-79
2023/12/27 11:25:15;;;;;;;8.60;3.73;;;6.10;99.90;;;;;;5076766;28;20591;-78
2023/12/27 11:27:42;;;;;;;8.17;2.60;;;6.10;99.90;;;;;;5077480;28;20202;-78
2023/12/27 11:30:11;;;;;;;9.53;2.23;;;6.20;1.00;;;;;;5076576;28;20234;-78
2023/12/27 11:32:41;;;;;;;8.40;2.80;;;6.20;1.00;;;;;;5067943;28;20233;-79
2023/12/27 11:35:10;;;;;;;6.90;2.90;;;6.30;1.00;;;;;;5062944;28;20204;-78
2023/12/27 11:37:40;;;;;;;8.50;2.77;;;6.30;1.00;;;;;;5067601;28;20932;-79
2023/12/27 11:40:10;;;;;;;5.23;2.60;;;6.40;1.00;;;;;;5060904;28;20198;-78
2023/12/27 11:42:38;;;;;;;9.73;3.43;;;6.50;99.90;;;;;;5071761;28;20249;-78
2023/12/27 11:45:05;;;;;;;6.07;2.80;;;6.50;99.90;;;;;;5073740;28;20202;-79
2023/12/27 11:47:32;;;;;;;9.20;3.47;;;6.50;42.20;;;;;;5072272;28;20204;-79
2023/12/27 11:50:21;;;;;;;8.03;3.10;;;6.50;99.90;;;;;;5068129;28;20214;-78
2023/12/27 11:52:51;;;;;;;12.77;3.23;;;6.50;99.90;;;;;;5064403;28;20233;-78
2023/12/27 11:55:20;;;;;;;8.30;3.10;;;6.60;1.00;;;;;;5072428;28;20204;-78
2023/12/27 11:57:56;;;;;;;8.73;2.97;;;6.60;1.00;;;;;;5063165;28;20198;-79
2023/12/27 12:00:25;;;;;;;8.27;3.53;;;6.60;1.00;;;;;;5067082;28;20200;-78
2023/12/27 12:02:58;;;;;;;6.43;3.10;;;6.60;1.00;;;;;;5072200;28;20226;-79
2023/12/27 12:05:45;;;;;;;10.07;3.60;;;6.70;1.00;;;;;;5058893;28;20272;-78
2023/12/27 12:08:18;;;;;;;8.43;3.53;;;6.70;1.00;;;;;;5063188;28;20201;-78
2023/12/27 12:11:05;;;;;;;8.93;3.40;;;6.70;1.00;;;;;;5072911;28;20199;-78
2023/12/27 12:13:32;;;;;;;8.70;3.57;;;6.70;1.00;;;;;;5071227;28;20206;-78
2023/12/27 12:15:59;;;;;;;9.10;2.73;;;6.70;1.00;;;;;;5073002;28;20641;-78
2023/12/27 12:18:27;;;;;;;12.53;3.63;;;6.70;1.00;;;;;;5076519;28;20656;-78
2023/12/27 12:20:56;;;;;;;11.57;3.20;;;6.70;1.00;;;;;;5076813;28;20202;-79
2023/12/27 12:23:22;;;;;;;8.33;3.30;;;6.80;1.00;;;;;;5077136;28;20223;-78
2023/12/27 12:25:49;;;;;;;11.27;3.60;;;6.80;1.00;;;;;;5076522;28;20204;-78
2023/12/27 12:28:16;;;;;;;13.47;3.73;;;6.80;1.00;;;;;;5071318;28;20209;-78
2023/12/27 12:30:46;;;;;;;10.43;3.73;;;6.80;1.00;;;;;;5071732;28;20203;-77
2023/12/27 12:33:13;;;;;;;13.93;5.50;;;6.90;1.00;;;;;;5068387;28;20226;-78
2023/12/27 12:35:40;;;;;;;10.60;3.90;;;6.90;1.00;;;;;;5076213;28;20209;-78
2023/12/27 12:38:09;;;;;;;10.53;3.97;;;6.90;1.00;;;;;;5068449;28;20202;-78
2023/12/27 12:40:36;;;;;;;11.07;4.33;;;6.90;1.00;;;;;;5065166;28;20691;-78
2023/12/27 12:43:04;;;;;;;10.30;3.43;;;6.90;1.00;;;;;;5073535;28;20253;-77
2023/12/27 12:45:33;;;;;;;7.50;3.40;;;7.00;1.00;;;;;;5070335;28;20273;-78
2023/12/27 12:48:00;;;;;;;13.20;4.70;;;7.00;1.00;;;;;;5067702;28;20214;-78
2023/12/27 12:50:26;;;;;;;16.60;3.87;;;6.90;1.00;;;;;;5063959;28;20209;-78
2023/12/27 12:52:53;;;;;;;17.27;4.47;;;7.00;1.00;;;;;;5067826;28;20226;-77
2023/12/27 12:55:28;;;;;;;10.27;4.20;;;7.00;1.00;;;;;;5067952;28;20205;-78
2023/12/27 12:57:55;;;;;;;11.33;3.70;;;7.00;1.00;;;;;;5073786;28;20198;-78
2023/12/27 13:00:23;;;;;;;11.77;4.30;;;7.10;1.00;;;;;;5075524;28;20202;-78